Time;durP1;ratioP1;P1;durP2;ratioP2;P2;SDS_P1;SDS_P2;PMS_P1;PMS_P2;Temp;Humidity;BMP_temperature;BMP_pressure;BME280_temperature;BME280_humidity;BME280_pressure;Samples;Min_cycle;Max_cycle;Signal;HPM_P1;HPM_P2
2022/01/21 00:00:43;;;;;;;20.50;10.27;;;6.40;99.90;;;;;;5230789;28;20082;-70
2022/01/21 00:03:14;;;;;;;24.42;9.32;;;6.50;99.90;;;;;;5230670;28;20045;-70
2022/01/21 00:05:44;;;;;;;22.60;10.00;;;6.40;99.90;;;;;;5230728;28;20020;-70
2022/01/21 00:08:16;;;;;;;19.83;10.05;;;6.40;99.90;;;;;;5231152;28;20068;-71
2022/01/21 00:10:47;;;;;;;25.95;10.13;;;6.60;99.90;;;;;;5230800;28;20079;-71
2022/01/21 00:13:33;;;;;;;21.42;10.00;;;6.30;99.90;;;;;;5230512;28;20464;-70
2022/01/21 00:16:11;;;;;;;16.70;9.48;;;6.50;99.90;;;;;;5230683;28;20356;-70
2022/01/21 00:18:54;;;;;;;22.48;10.20;;;6.60;99.90;;;;;;5230233;28;20416;-71
2022/01/21 00:32:47;;;;;;;23.23;8.85;;;7.00;99.90;;;;;;5230152;28;20145;-71
2022/01/21 00:35:20;;;;;;;24.08;8.02;;;7.00;99.90;;;;;;5229984;28;20025;-71
2022/01/21 00:37:51;;;;;;;22.88;8.50;;;6.90;99.90;;;;;;5230213;28;20025;-71
2022/01/21 00:40:23;;;;;;;20.33;8.75;;;7.00;99.90;;;;;;5230021;28;20028;-71
2022/01/21 00:43:21;;;;;;;23.75;8.18;;;7.00;99.90;;;;;;5230308;28;20033;-71
2022/01/21 00:45:45;;;;;;;20.35;8.07;;;6.90;99.90;;;;;;5229583;28;20132;-72
2022/01/21 00:48:17;;;;;;;19.58;8.38;;;7.10;99.90;;;;;;5229900;28;20029;-71
2022/01/21 00:50:48;;;;;;;15.32;7.40;;;6.70;99.90;;;;;;5230065;28;20047;-71
2022/01/21 00:53:19;;;;;;;17.55;7.38;;;6.90;99.90;;;;;;5229926;28;20033;-71
2022/01/21 00:55:50;;;;;;;16.75;7.28;;;6.90;99.90;;;;;;5228792;28;20021;-71
2022/01/21 00:58:20;;;;;;;21.40;7.43;;;6.90;99.90;;;;;;5229205;28;20507;-70
2022/01/21 01:00:51;;;;;;;21.85;7.40;;;7.20;99.90;;;;;;5229667;28;20116;-71
2022/01/21 01:03:22;;;;;;;18.42;7.93;;;7.20;99.90;;;;;;5229629;28;20064;-71
2022/01/21 01:05:53;;;;;;;21.83;7.47;;;7.10;99.90;;;;;;5229571;28;20362;-71
2022/01/21 01:08:24;;;;;;;23.77;8.85;;;7.10;99.90;;;;;;5229639;28;20525;-71
2022/01/21 01:22:08;;;;;;;31.13;12.38;;;7.00;99.90;;;;;;5229438;28;20119;-71
2022/01/21 01:30:09;;;;;;;20.73;9.13;;;7.00;99.90;;;;;;5229379;28;20029;-71
2022/01/21 01:32:41;;;;;;;25.13;8.45;;;6.90;99.90;;;;;;5229050;28;20278;-71
2022/01/21 01:35:14;;;;;;;22.25;8.45;;;6.90;99.90;;;;;;5229088;28;20075;-71
2022/01/21 01:38:10;;;;;;;19.08;7.35;;;6.90;99.90;;;;;;5228742;28;20021;-71
2022/01/21 01:40:48;;;;;;;19.45;7.72;;;7.00;99.90;;;;;;5228508;28;20037;-70
2022/01/21 01:49:27;;;;;;;21.63;8.23;;;7.00;99.90;;;;;;5228905;28;20041;-71
2022/01/21 01:51:52;;;;;;;27.10;8.13;;;6.80;99.90;;;;;;5228994;28;20035;-70
2022/01/21 01:54:32;;;;;;;21.52;8.80;;;6.90;99.90;;;;;;5228827;28;20033;-70
2022/01/21 01:57:04;;;;;;;24.25;8.02;;;6.70;99.90;;;;;;5228621;28;20029;-71
2022/01/21 01:59:35;;;;;;;17.00;7.55;;;7.00;99.90;;;;;;5228606;28;20381;-70
2022/01/21 02:02:12;;;;;;;21.90;7.95;;;6.80;99.90;;;;;;5228638;28;20431;-71
2022/01/21 02:04:44;;;;;;;25.35;8.07;;;7.00;99.90;;;;;;5228534;28;20036;-70
2022/01/21 02:07:15;;;;;;;22.05;9.25;;;7.00;99.90;;;;;;5228032;28;20013;-71
2022/01/21 02:09:46;;;;;;;17.80;8.15;;;6.90;99.90;;;;;;5228324;28;20032;-71
2022/01/21 02:12:17;;;;;;;16.08;7.53;;;7.00;99.90;;;;;;5228185;28;20021;-71
2022/01/21 02:14:51;;;;;;;21.92;8.60;;;6.90;99.90;;;;;;5228145;28;20021;-71
2022/01/21 02:22:46;;;;;;;17.50;8.02;;;6.80;99.90;;;;;;5228176;28;20057;-71
2022/01/21 02:25:19;;;;;;;21.60;8.02;;;6.60;99.90;;;;;;5228207;28;20064;-71
2022/01/21 02:27:56;;;;;;;27.10;8.30;;;6.50;99.90;;;;;;5228047;28;20024;-71
2022/01/21 02:30:27;;;;;;;20.83;8.02;;;6.90;99.90;;;;;;5228159;28;20036;-71
2022/01/21 02:33:00;;;;;;;19.38;8.52;;;7.00;99.90;;;;;;5228021;28;20018;-71
2022/01/21 02:35:31;;;;;;;21.67;8.13;;;6.90;99.90;;;;;;5227973;28;20155;-70
2022/01/21 02:38:02;;;;;;;26.67;9.90;;;6.80;99.90;;;;;;5227890;28;20515;-70
2022/01/21 02:40:33;;;;;;;27.23;11.05;;;7.00;99.90;;;;;;5227961;28;20085;-71
2022/01/21 02:43:04;;;;;;;20.05;8.93;;;6.90;99.90;;;;;;5228006;28;20392;-71
2022/01/21 02:45:37;;;;;;;23.50;7.75;;;7.00;99.90;;;;;;5227933;28;20146;-71
2022/01/21 02:48:09;;;;;;;30.05;9.77;;;6.80;99.90;;;;;;5227760;28;20486;-71
2022/01/21 02:50:40;;;;;;;29.27;11.82;;;6.60;99.90;;;;;;5228103;28;20167;-71
2022/01/21 02:53:13;;;;;;;33.33;8.55;;;6.50;99.90;;;;;;5226395;28;20120;-71
2022/01/21 02:55:44;;;;;;;29.95;14.15;;;6.60;99.90;;;;;;5227703;28;20040;-71
2022/01/21 02:58:15;;;;;;;24.10;9.00;;;6.70;99.90;;;;;;5227314;28;20048;-71
2022/01/21 03:00:46;;;;;;;20.90;8.75;;;6.60;99.90;;;;;;5227802;28;20114;-71
2022/01/21 03:03:21;;;;;;;22.85;8.10;;;6.10;99.90;;;;;;5227622;28;20037;-72
2022/01/21 03:05:57;;;;;;;33.03;14.07;;;5.90;99.90;;;;;;5227441;28;20029;-72
2022/01/21 03:08:32;;;;;;;36.88;17.08;;;6.10;99.90;;;;;;5227738;28;20125;-71
2022/01/21 03:11:08;;;;;;;28.55;8.75;;;6.30;99.90;;;;;;5227582;28;20025;-71
2022/01/21 03:13:42;;;;;;;22.13;9.32;;;6.40;99.90;;;;;;5227843;28;20566;-71
2022/01/21 03:16:13;;;;;;;18.70;8.25;;;6.40;99.90;;;;;;5227627;28;20025;-70
2022/01/21 03:18:44;;;;;;;23.50;9.18;;;6.00;99.90;;;;;;5228672;28;20372;-71
2022/01/21 03:21:16;;;;;;;24.02;9.65;;;6.50;99.90;;;;;;5231532;28;20060;-71
2022/01/21 03:23:50;;;;;;;17.98;9.10;;;6.00;99.90;;;;;;5231581;28;20487;-70
2022/01/21 03:26:24;;;;;;;21.30;8.80;;;6.50;99.90;;;;;;5231637;28;20453;-70
2022/01/21 03:29:00;;;;;;;22.17;9.35;;;6.60;99.90;;;;;;5231265;28;20471;-70
2022/01/21 03:31:31;;;;;;;18.38;9.02;;;6.60;99.90;;;;;;5231322;28;20025;-71
2022/01/21 03:34:03;;;;;;;19.45;10.00;;;6.70;99.90;;;;;;5231677;28;20384;-70
2022/01/21 03:36:35;;;;;;;19.73;9.95;;;6.60;99.90;;;;;;5231393;28;20326;-70
2022/01/21 03:39:07;;;;;;;32.58;10.80;;;6.90;99.90;;;;;;5231222;28;20100;-70
2022/01/21 03:41:39;;;;;;;28.20;10.13;;;6.90;99.90;;;;;;5231330;28;20025;-70
2022/01/21 03:44:10;;;;;;;26.33;9.73;;;6.80;99.90;;;;;;5231391;28;20408;-71
2022/01/21 03:46:40;;;;;;;25.58;10.20;;;6.70;99.90;;;;;;5231260;28;20087;-71
2022/01/21 03:49:12;;;;;;;20.38;10.48;;;6.80;99.90;;;;;;5231388;28;20057;-70
2022/01/21 03:51:43;;;;;;;23.05;9.93;;;6.60;99.90;;;;;;5231050;28;20024;-71
2022/01/21 03:54:14;;;;;;;22.92;10.13;;;6.60;99.90;;;;;;5231082;28;20079;-71
2022/01/21 03:56:45;;;;;;;26.20;10.95;;;6.40;99.90;;;;;;5231094;28;20052;-71
2022/01/21 03:59:15;;;;;;;27.08;11.75;;;6.60;99.90;;;;;;5230098;28;20044;-71
2022/01/21 04:01:46;;;;;;;27.67;10.32;;;6.70;99.90;;;;;;5230726;28;20033;-70
2022/01/21 04:04:17;;;;;;;24.88;10.73;;;6.90;99.90;;;;;;5230910;28;20141;-71
2022/01/21 04:06:48;;;;;;;25.63;10.23;;;6.80;99.90;;;;;;5230723;28;20022;-70
2022/01/21 04:09:19;;;;;;;28.90;10.52;;;6.60;99.90;;;;;;5230725;28;20036;-70
2022/01/21 04:11:51;;;;;;;23.30;11.68;;;6.80;99.90;;;;;;5230819;28;20036;-70
2022/01/21 04:14:23;;;;;;;19.58;10.25;;;6.80;99.90;;;;;;5230597;28;20029;-70
2022/01/21 04:16:53;;;;;;;23.30;9.70;;;6.80;99.90;;;;;;5230486;28;20036;-71
2022/01/21 04:19:26;;;;;;;22.40;10.02;;;6.80;99.90;;;;;;5230793;28;20384;-70
2022/01/21 04:21:57;;;;;;;23.48;10.73;;;6.90;99.90;;;;;;5230424;28;20464;-71
2022/01/21 04:24:28;;;;;;;26.23;11.13;;;6.60;99.90;;;;;;5230513;28;20059;-70
2022/01/21 04:26:59;;;;;;;20.73;9.55;;;6.70;99.90;;;;;;5230243;28;20376;-70
2022/01/21 04:29:29;;;;;;;21.08;9.68;;;6.80;99.90;;;;;;5228768;28;20120;-70
2022/01/21 04:32:00;;;;;;;19.88;9.98;;;6.40;99.90;;;;;;5230341;28;20029;-71
2022/01/21 04:34:32;;;;;;;26.48;10.55;;;6.50;99.90;;;;;;5239519;28;20021;-70
2022/01/21 04:37:07;;;;;;;24.02;10.95;;;6.70;99.90;;;;;;5250905;28;20017;-71
2022/01/21 04:39:49;;;;;;;27.30;9.52;;;6.70;99.90;;;;;;5250897;28;20116;-70
2022/01/21 04:47:41;;;;;;;21.55;9.90;;;6.90;99.90;;;;;;5251064;28;20398;-70
2022/01/21 04:50:14;;;;;;;21.98;9.82;;;6.70;99.90;;;;;;5250795;28;20028;-70
2022/01/21 04:52:45;;;;;;;27.05;9.65;;;6.90;99.90;;;;;;5250623;28;20077;-71
2022/01/21 04:55:16;;;;;;;20.50;9.77;;;6.70;99.90;;;;;;5250506;28;20025;-71
2022/01/21 04:57:47;;;;;;;19.10;9.32;;;6.80;99.90;;;;;;5250119;28;20040;-70
2022/01/21 05:00:18;;;;;;;19.73;8.95;;;7.00;99.90;;;;;;5250147;28;20025;-71
2022/01/21 05:02:48;;;;;;;26.45;9.50;;;6.90;99.90;;;;;;5233751;28;20037;-71
2022/01/21 05:05:19;;;;;;;22.60;9.15;;;7.20;99.90;;;;;;5229878;28;20017;-71
2022/01/21 05:07:50;;;;;;;19.15;9.27;;;7.10;99.90;;;;;;5229471;28;20033;-71
2022/01/21 05:10:24;;;;;;;19.75;9.05;;;7.00;99.90;;;;;;5229684;28;20021;-71
2022/01/21 05:12:55;;;;;;;22.35;10.00;;;6.80;99.90;;;;;;5229460;28;20025;-71
2022/01/21 05:15:42;;;;;;;19.05;8.82;;;6.90;99.90;;;;;;5229391;28;20025;-71
2022/01/21 05:18:13;;;;;;;23.00;9.73;;;6.50;99.90;;;;;;5229390;28;20036;-71
2022/01/21 05:20:44;;;;;;;22.67;10.18;;;6.30;99.90;;;;;;5229352;28;20384;-71
2022/01/21 05:23:15;;;;;;;20.83;11.55;;;6.40;99.90;;;;;;5229282;28;20029;-71
2022/01/21 05:25:45;;;;;;;24.02;10.75;;;6.70;99.90;;;;;;5229236;28;20052;-71
2022/01/21 05:28:16;;;;;;;26.25;10.18;;;7.00;99.90;;;;;;5228960;28;20119;-71
2022/01/21 05:30:47;;;;;;;20.85;9.25;;;6.70;99.90;;;;;;5229425;28;20407;-71
2022/01/21 05:33:18;;;;;;;23.17;11.35;;;6.50;99.90;;;;;;5238062;28;20028;-72
2022/01/21 05:35:49;;;;;;;23.25;10.88;;;6.40;99.90;;;;;;5249541;28;20147;-72
2022/01/21 05:38:20;;;;;;;25.67;10.48;;;6.60;99.90;;;;;;5249466;28;20108;-71
2022/01/21 05:40:51;;;;;;;26.25;10.88;;;6.80;99.90;;;;;;5249086;28;20024;-71
2022/01/21 05:43:22;;;;;;;22.58;10.15;;;6.90;99.90;;;;;;5249169;28;20498;-71
2022/01/21 05:48:42;;;;;;;24.23;11.63;;;7.00;99.90;;;;;;5249446;28;20078;-71
2022/01/21 05:51:13;;;;;;;29.40;11.68;;;7.00;99.90;;;;;;5249579;28;20013;-71
2022/01/21 05:53:44;;;;;;;25.98;13.02;;;6.90;99.90;;;;;;5236718;28;20051;-71
2022/01/21 05:56:15;;;;;;;35.53;13.73;;;6.90;99.90;;;;;;5233665;28;20538;-72
2022/01/21 05:58:46;;;;;;;24.23;12.63;;;7.00;99.90;;;;;;5233907;28;20049;-71
2022/01/21 06:01:17;;;;;;;29.85;12.75;;;7.00;99.90;;;;;;5237103;28;20025;-71
2022/01/21 06:03:49;;;;;;;21.33;10.57;;;7.10;99.90;;;;;;5240585;28;20102;-72
2022/01/21 06:06:20;;;;;;;23.50;12.13;;;7.20;99.90;;;;;;5237479;28;20025;-72
2022/01/21 06:08:51;;;;;;;26.90;11.07;;;7.10;99.90;;;;;;5229039;28;20491;-72
2022/01/21 06:11:22;;;;;;;26.40;11.05;;;7.40;99.90;;;;;;5242238;28;20021;-72
2022/01/21 06:13:52;;;;;;;25.67;12.07;;;7.30;99.90;;;;;;5237473;28;20017;-72
2022/01/21 06:16:23;;;;;;;21.77;10.80;;;7.40;99.90;;;;;;5241915;28;20477;-71
2022/01/21 06:18:54;;;;;;;23.88;10.85;;;7.60;99.90;;;;;;5234818;28;20047;-72
2022/01/21 06:21:25;;;;;;;23.05;10.93;;;7.60;99.90;;;;;;5234366;28;20037;-71
2022/01/21 06:23:56;;;;;;;21.95;9.38;;;7.70;99.90;;;;;;5231273;28;20033;-72
2022/01/21 06:26:27;;;;;;;20.60;10.65;;;7.80;99.90;;;;;;5233075;28;20024;-72
2022/01/21 06:28:58;;;;;;;16.52;9.98;;;7.70;99.90;;;;;;5229729;28;20040;-72
2022/01/21 06:31:28;;;;;;;25.48;11.15;;;7.80;99.90;;;;;;5234819;28;20038;-72
2022/01/21 06:33:59;;;;;;;24.77;10.32;;;7.70;99.90;;;;;;5234711;28;20024;-72
2022/01/21 06:36:30;;;;;;;25.02;10.77;;;7.80;99.90;;;;;;5237754;28;20025;-71
2022/01/21 06:39:01;;;;;;;18.10;9.63;;;7.90;99.90;;;;;;5228298;28;20029;-72
2022/01/21 06:41:32;;;;;;;179.65;74.80;;;8.00;99.90;;;;;;5235658;28;20071;-71
2022/01/21 06:44:04;;;;;;;23.25;10.05;;;8.00;99.90;;;;;;5233198;28;20501;-71
2022/01/21 06:46:35;;;;;;;23.17;10.38;;;8.10;99.90;;;;;;5236832;28;20539;-71
2022/01/21 06:49:06;;;;;;;25.20;11.23;;;8.20;99.90;;;;;;5236417;28;20475;-72
2022/01/21 06:51:37;;;;;;;21.65;9.95;;;8.10;99.90;;;;;;5236068;28;20017;-72
2022/01/21 06:54:08;;;;;;;24.23;9.98;;;8.30;99.90;;;;;;5237734;28;20384;-71
2022/01/21 06:56:39;;;;;;;29.27;11.30;;;8.30;99.90;;;;;;5242867;28;20024;-72
2022/01/21 06:59:10;;;;;;;23.80;11.30;;;8.40;99.90;;;;;;5240107;28;20049;-72
2022/01/21 07:01:41;;;;;;;20.48;9.40;;;8.30;99.90;;;;;;5237417;28;20086;-72
2022/01/21 07:04:12;;;;;;;20.95;9.77;;;8.30;99.90;;;;;;5242344;28;20060;-72
2022/01/21 07:06:42;;;;;;;20.65;11.15;;;8.40;99.90;;;;;;5235019;28;20048;-71
2022/01/21 07:09:13;;;;;;;29.00;14.35;;;8.30;99.90;;;;;;5240693;28;20035;-71
2022/01/21 07:11:44;;;;;;;23.17;9.75;;;8.50;99.90;;;;;;5239181;28;20021;-71
2022/01/21 07:14:17;;;;;;;41.83;17.90;;;8.50;99.90;;;;;;5243754;28;20033;-71
2022/01/21 07:16:49;;;;;;;29.35;13.95;;;8.40;99.90;;;;;;5239587;28;20392;-71
2022/01/21 07:19:20;;;;;;;45.80;23.85;;;8.50;99.90;;;;;;5241879;28;20036;-71
2022/01/21 07:21:51;;;;;;;30.38;13.77;;;8.50;99.90;;;;;;5236074;28;20028;-72
2022/01/21 07:24:21;;;;;;;24.77;8.57;;;8.60;99.90;;;;;;5235931;28;20028;-72
2022/01/21 07:26:52;;;;;;;24.92;10.88;;;8.70;99.90;;;;;;5238141;28;20017;-72
2022/01/21 07:29:23;;;;;;;17.17;9.20;;;8.80;99.90;;;;;;5240180;28;20056;-72
2022/01/21 07:31:54;;;;;;;21.77;9.48;;;8.90;99.90;;;;;;5237182;28;20029;-73
2022/01/21 07:34:26;;;;;;;21.60;9.07;;;9.30;99.90;;;;;;5239392;28;20341;-72
2022/01/21 07:36:57;;;;;;;24.20;8.93;;;10.00;99.90;;;;;;5234479;28;20025;-72
2022/01/21 07:39:28;;;;;;;20.30;8.73;;;9.90;99.90;;;;;;5248886;28;20020;-72
2022/01/21 07:41:59;;;;;;;18.25;9.35;;;9.80;99.90;;;;;;5240032;28;20048;-72
2022/01/21 07:44:30;;;;;;;;;;;10.20;99.90;;;;;;5236363;28;20499;-72
2022/01/21 07:47:00;;;;;;;;;;;10.40;99.90;;;;;;5232492;28;20035;-72
2022/01/21 07:49:31;;;;;;;;;;;10.50;99.90;;;;;;5242727;28;20028;-71
2022/01/21 07:52:02;;;;;;;17.00;7.70;;;10.70;99.90;;;;;;5240743;28;19911;-71
2022/01/21 07:54:33;;;;;;;26.67;12.52;;;10.80;99.90;;;;;;5237171;28;20112;-71
2022/01/21 07:57:04;;;;;;;30.20;9.88;;;10.60;99.90;;;;;;5234288;28;20112;-71
2022/01/21 07:59:35;;;;;;;15.25;7.07;;;10.30;99.90;;;;;;5237801;28;20053;-71
2022/01/21 08:02:06;;;;;;;31.45;13.95;;;10.60;99.90;;;;;;5242032;28;20028;-71
2022/01/21 08:04:37;;;;;;;17.13;8.38;;;10.30;99.90;;;;;;5233876;28;20032;-71
2022/01/21 08:07:10;;;;;;;16.35;7.68;;;10.50;99.90;;;;;;5231652;28;20028;-71
2022/01/21 08:09:41;;;;;;;18.40;6.88;;;10.40;99.90;;;;;;5242100;28;20334;-70
2022/01/21 08:12:11;;;;;;;16.10;7.38;;;10.20;99.90;;;;;;5229965;28;20017;-71
2022/01/21 08:14:43;;;;;;;18.45;6.95;;;10.30;99.90;;;;;;5235514;28;20017;-71
2022/01/21 08:17:14;;;;;;;16.83;6.85;;;10.40;99.90;;;;;;5235574;28;20922;-71
2022/01/21 08:19:44;;;;;;;15.00;6.93;;;10.30;99.90;;;;;;5241624;28;20096;-71
2022/01/21 08:22:15;;;;;;;16.27;6.38;;;8.90;99.90;;;;;;5231402;28;20036;-71
2022/01/21 08:24:46;;;;;;;13.70;6.13;;;8.60;99.90;;;;;;5239013;28;20505;-72
2022/01/21 08:27:17;;;;;;;14.95;7.22;;;8.40;99.90;;;;;;5236381;28;20088;-71
2022/01/21 08:29:48;;;;;;;15.68;5.68;;;8.20;99.90;;;;;;5234012;28;20365;-71
2022/01/21 08:32:20;;;;;;;11.15;4.97;;;8.30;99.90;;;;;;5235347;28;20012;-71
2022/01/21 08:34:51;;;;;;;10.38;4.97;;;8.10;99.90;;;;;;5240746;28;20174;-72
2022/01/21 08:37:22;;;;;;;10.07;5.10;;;8.00;99.90;;;;;;5239529;28;20104;-70
2022/01/21 08:39:52;;;;;;;9.77;4.70;;;8.10;99.90;;;;;;5234341;28;20029;-70
2022/01/21 08:42:23;;;;;;;9.68;4.93;;;8.00;99.90;;;;;;5236695;28;20471;-70
2022/01/21 08:44:56;;;;;;;10.88;5.25;;;8.00;99.90;;;;;;5239349;28;20031;-72
2022/01/21 08:47:27;;;;;;;14.43;5.88;;;7.90;99.90;;;;;;5241268;28;20085;-71
2022/01/21 08:50:01;;;;;;;9.98;4.55;;;8.00;99.90;;;;;;5244190;28;20349;-71
2022/01/21 08:52:36;;;;;;;11.20;4.10;;;8.00;99.90;;;;;;5240855;28;20028;-70
2022/01/21 08:55:18;;;;;;;15.23;6.95;;;8.00;99.90;;;;;;5237010;28;20487;-70
2022/01/21 08:57:49;;;;;;;16.88;8.07;;;7.90;99.90;;;;;;5230287;28;20167;-73
2022/01/21 09:03:51;;;;;;;15.82;7.20;;;7.80;99.90;;;;;;5298433;27;20697;-71
2022/01/21 09:06:27;;;;;;;13.88;6.90;;;8.00;99.90;;;;;;5285857;28;20048;-74
2022/01/21 09:08:59;;;;;;;14.93;6.97;;;7.90;99.90;;;;;;5285638;28;20028;-70
2022/01/21 09:11:30;;;;;;;10.48;5.72;;;7.80;99.90;;;;;;5285775;28;20138;-70
2022/01/21 09:14:01;;;;;;;11.77;6.43;;;7.70;99.90;;;;;;5282833;28;20115;-69
2022/01/21 09:16:32;;;;;;;16.33;5.18;;;7.70;99.90;;;;;;5284759;28;20042;-70
2022/01/21 09:19:04;;;;;;;10.60;5.30;;;7.60;99.90;;;;;;5285367;28;20024;-71
2022/01/21 09:21:37;;;;;;;13.18;6.72;;;7.50;99.90;;;;;;5285965;28;20012;-72
2022/01/21 09:24:08;;;;;;;11.15;5.68;;;7.50;99.90;;;;;;5285009;28;20031;-71
2022/01/21 09:26:39;;;;;;;6.35;3.70;;;7.70;99.90;;;;;;5283676;28;20028;-70
2022/01/21 09:29:10;;;;;;;9.93;4.82;;;7.10;99.90;;;;;;5264480;28;20098;-71
2022/01/21 09:31:43;;;;;;;12.27;5.38;;;6.60;99.90;;;;;;5264192;28;20032;-70
2022/01/21 09:34:15;;;;;;;9.45;4.05;;;6.10;99.90;;;;;;5260123;28;20041;-71
2022/01/21 09:36:46;;;;;;;10.20;3.83;;;6.00;99.90;;;;;;5263871;28;20066;-70
2022/01/21 09:39:17;;;;;;;13.77;4.57;;;5.90;99.90;;;;;;5264105;28;20114;-71
2022/01/21 09:41:49;;;;;;;11.52;5.28;;;5.90;99.90;;;;;;5260975;28;20033;-71
2022/01/21 09:44:21;;;;;;;10.57;4.90;;;5.70;99.90;;;;;;5261535;28;20401;-71
2022/01/21 09:46:53;;;;;;;13.52;6.05;;;5.40;99.90;;;;;;5263490;28;20027;-69
2022/01/21 09:52:11;;;;;;;11.40;5.10;;;5.20;99.90;;;;;;5264783;28;20024;-71
2022/01/21 09:54:45;;;;;;;10.57;5.05;;;4.90;99.90;;;;;;5247938;28;20348;-71
2022/01/21 09:57:23;;;;;;;12.63;5.32;;;5.20;99.90;;;;;;5264869;28;20029;-71
2022/01/21 09:59:55;;;;;;;10.27;4.60;;;4.70;99.90;;;;;;5260823;28;20024;-72
2022/01/21 10:02:28;;;;;;;10.65;5.75;;;4.80;99.90;;;;;;5258618;28;20035;-71
2022/01/21 10:05:01;;;;;;;10.07;5.07;;;4.80;99.90;;;;;;5272249;28;20044;-72
2022/01/21 10:07:35;;;;;;;10.70;7.03;;;4.50;99.90;;;;;;5265506;28;20021;-71
2022/01/21 10:10:08;;;;;;;59.08;34.30;;;4.00;99.90;;;;;;5265144;28;20075;-73
2022/01/21 10:12:43;;;;;;;46.88;31.10;;;3.90;99.90;;;;;;5264806;28;20032;-71
2022/01/21 10:15:16;;;;;;;28.70;19.65;;;4.00;99.90;;;;;;5232717;28;20510;-71
2022/01/21 10:18:05;;;;;;;26.98;20.75;;;4.00;99.90;;;;;;5250755;28;20032;-70
2022/01/21 10:20:36;;;;;;;24.92;17.13;;;3.70;99.90;;;;;;5250786;28;20119;-71
2022/01/21 10:23:09;;;;;;;30.17;22.80;;;3.60;99.90;;;;;;5250853;28;20107;-70
2022/01/21 10:25:40;;;;;;;10.85;5.65;;;3.70;99.90;;;;;;5250935;28;20514;-71
2022/01/21 10:28:19;;;;;;;10.05;7.82;;;3.70;99.90;;;;;;5250875;28;20404;-70
2022/01/21 10:31:04;;;;;;;9.52;6.55;;;3.40;99.90;;;;;;5250866;28;20064;-71
2022/01/21 10:33:53;;;;;;;13.30;10.27;;;3.70;99.90;;;;;;5250601;28;20495;-71
2022/01/21 10:36:28;;;;;;;7.10;5.78;;;3.60;99.90;;;;;;5250948;28;20021;-70
2022/01/21 10:39:48;;;;;;;8.68;5.05;;;3.80;99.90;;;;;;5250613;28;20028;-72
2022/01/21 10:41:56;;;;;;;10.30;5.43;;;3.70;99.90;;;;;;5235992;28;20488;-72
2022/01/21 10:44:30;;;;;;;7.28;4.90;;;3.60;99.90;;;;;;5250535;28;20036;-71
2022/01/21 10:47:06;;;;;;;8.43;5.22;;;3.60;99.90;;;;;;5250497;28;20476;-72
2022/01/21 10:49:39;;;;;;;7.35;4.63;;;3.80;99.90;;;;;;5229730;28;20032;-72
2022/01/21 10:52:13;;;;;;;8.43;5.75;;;3.80;99.90;;;;;;5231892;28;20027;-72
2022/01/21 10:54:49;;;;;;;9.65;6.47;;;3.80;99.90;;;;;;5250480;28;20027;-72
2022/01/21 10:57:22;;;;;;;6.93;5.70;;;3.80;99.90;;;;;;5249798;28;20406;-73
2022/01/21 11:00:00;;;;;;;10.32;4.80;;;3.80;99.90;;;;;;5249515;28;20032;-71
2022/01/21 11:02:51;;;;;;;7.90;5.22;;;3.70;99.90;;;;;;5239560;28;20043;-72
2022/01/21 11:05:24;;;;;;;12.77;8.13;;;3.70;99.90;;;;;;5229430;28;20029;-73
2022/01/21 11:08:03;;;;;;;14.40;10.88;;;3.80;99.90;;;;;;5229521;28;20021;-73
2022/01/21 11:10:39;;;;;;;6.85;5.60;;;3.80;99.90;;;;;;5229672;28;20040;-74
2022/01/21 11:13:13;;;;;;;7.95;4.10;;;3.50;99.90;;;;;;5229780;28;20368;-73
2022/01/21 11:15:48;;;;;;;5.32;4.53;;;3.40;99.90;;;;;;5229208;28;20024;-72
2022/01/21 11:18:20;;;;;;;5.88;4.03;;;3.20;99.90;;;;;;5229301;28;20381;-72
2022/01/21 11:21:07;;;;;;;5.80;3.33;;;3.30;99.90;;;;;;5229379;28;20469;-72
2022/01/21 11:23:38;;;;;;;6.03;4.35;;;3.20;99.90;;;;;;5208531;28;20037;-72
2022/01/21 11:26:09;;;;;;;5.35;4.55;;;3.00;99.90;;;;;;5207371;28;20357;-72
2022/01/21 11:28:46;;;;;;;9.27;4.68;;;2.90;99.90;;;;;;5213043;28;20028;-72
2022/01/21 11:31:20;;;;;;;5.18;3.00;;;2.90;99.90;;;;;;5228859;28;20032;-72
2022/01/21 11:33:51;;;;;;;5.43;3.72;;;3.00;99.90;;;;;;5228547;28;20043;-72
2022/01/21 11:36:22;;;;;;;6.63;3.92;;;3.10;99.90;;;;;;5228604;28;20025;-73
2022/01/21 11:38:55;;;;;;;8.93;4.95;;;3.00;99.90;;;;;;5228647;28;20436;-73
2022/01/21 11:41:28;;;;;;;13.10;7.93;;;2.80;99.90;;;;;;5228326;28;20029;-73
2022/01/21 11:44:02;;;;;;;14.18;9.82;;;2.90;99.90;;;;;;5228633;28;20032;-73
2022/01/21 11:49:17;;;;;;;33.67;19.92;;;3.00;99.90;;;;;;5228249;28;20107;-73
2022/01/21 11:51:48;;;;;;;36.13;23.00;;;2.90;99.90;;;;;;5228543;28;20017;-73
2022/01/21 11:54:24;;;;;;;9.00;4.88;;;3.00;99.90;;;;;;5228439;28;20113;-72
2022/01/21 11:57:00;;;;;;;26.08;15.02;;;3.10;99.90;;;;;;5227581;28;20644;-73
2022/01/21 12:02:26;;;;;;;6.78;4.43;;;2.90;99.90;;;;;;5236590;28;20059;-72
2022/01/21 12:05:09;;;;;;;3.53;1.92;;;3.00;99.90;;;;;;5249055;28;20035;-73
2022/01/21 12:07:44;;;;;;;4.82;2.40;;;3.00;99.90;;;;;;5228059;28;20047;-72
2022/01/21 12:10:15;;;;;;;3.55;2.25;;;3.20;99.90;;;;;;5228532;28;20117;-73
2022/01/21 12:12:51;;;;;;;2.70;1.85;;;3.00;99.90;;;;;;5241888;28;20024;-73
2022/01/21 12:18:06;;;;;;;3.58;2.35;;;3.20;99.90;;;;;;5248930;28;20045;-73
2022/01/21 12:20:37;;;;;;;7.07;3.08;;;3.10;99.90;;;;;;5248968;28;20116;-73
2022/01/21 12:23:13;;;;;;;2.20;1.70;;;3.00;99.90;;;;;;5248439;28;20123;-73
2022/01/21 12:26:09;;;;;;;15.18;10.65;;;3.00;99.90;;;;;;5248469;28;20024;-73
2022/01/21 12:28:45;;;;;;;39.95;24.35;;;2.80;99.90;;;;;;5248473;28;20027;-73
2022/01/21 12:31:16;;;;;;;18.23;10.77;;;2.80;99.90;;;;;;5248562;28;20099;-73
2022/01/21 12:36:31;;;;;;;8.23;5.43;;;2.80;99.90;;;;;;5258369;28;20476;-73
2022/01/21 12:39:24;;;;;;;9.38;6.68;;;2.60;99.90;;;;;;5248666;28;20024;-73
2022/01/21 12:41:55;;;;;;;8.43;4.65;;;2.70;99.90;;;;;;5227393;28;20365;-73
2022/01/21 12:44:30;;;;;;;9.35;4.93;;;2.70;99.90;;;;;;5227803;28;20024;-73
2022/01/21 12:47:41;;;;;;;9.32;5.28;;;2.70;99.90;;;;;;5227742;28;20480;-73
2022/01/21 12:50:34;;;;;;;5.38;2.47;;;2.60;99.90;;;;;;5227707;28;20056;-72
2022/01/21 12:53:22;;;;;;;6.22;3.05;;;2.60;99.90;;;;;;5244106;28;20515;-72
2022/01/21 12:56:05;;;;;;;9.15;5.10;;;2.40;99.90;;;;;;5234182;28;20024;-73
2022/01/21 12:58:41;;;;;;;5.78;2.83;;;2.50;99.90;;;;;;5248090;28;20020;-72
2022/01/21 13:01:13;;;;;;;5.95;2.60;;;2.30;99.90;;;;;;5248167;28;20037;-72
2022/01/21 13:04:07;;;;;;;4.30;2.72;;;2.00;99.90;;;;;;5257604;28;20110;-72
2022/01/21 13:06:42;;;;;;;3.65;2.00;;;2.20;99.90;;;;;;5248233;28;20451;-73
2022/01/21 13:09:20;;;;;;;6.43;2.10;;;2.10;99.90;;;;;;5248054;28;20021;-73
2022/01/21 13:11:58;;;;;;;3.85;2.90;;;1.90;99.90;;;;;;5248012;28;20107;-73
2022/01/21 13:17:11;;;;;;;5.95;4.43;;;1.90;99.90;;;;;;5248013;28;20481;-73
2022/01/21 13:19:49;;;;;;;6.07;4.28;;;2.20;99.90;;;;;;5233159;28;20039;-73
2022/01/21 13:22:30;;;;;;;4.78;2.40;;;2.20;99.90;;;;;;5243937;28;20028;-73
2022/01/21 13:25:09;;;;;;;5.25;2.70;;;2.30;99.90;;;;;;5242531;28;20695;-73
2022/01/21 13:27:48;;;;;;;11.30;5.60;;;2.50;99.90;;;;;;5244970;28;20028;-73
2022/01/21 13:30:21;;;;;;;31.13;17.33;;;2.50;99.90;;;;;;5245116;28;20031;-73
2022/01/21 13:33:07;;;;;;;13.18;8.00;;;2.60;99.90;;;;;;5246988;28;20044;-73
2022/01/21 13:35:43;;;;;;;16.58;9.20;;;2.70;99.90;;;;;;5246980;28;20100;-74
2022/01/21 13:38:18;;;;;;;21.08;13.05;;;2.80;99.90;;;;;;5246900;28;20021;-73
2022/01/21 13:40:53;;;;;;;10.90;6.75;;;2.90;99.90;;;;;;5247350;28;20089;-73
2022/01/21 13:43:27;;;;;;;5.60;3.60;;;2.90;99.90;;;;;;5247167;28;20038;-73
2022/01/21 13:46:04;;;;;;;6.10;3.83;;;2.90;99.90;;;;;;5246633;28;20020;-73
2022/01/21 13:48:36;;;;;;;5.88;2.88;;;3.10;99.90;;;;;;5247985;28;20035;-73
2022/01/21 13:51:08;;;;;;;21.10;17.10;;;3.00;99.90;;;;;;5259840;28;20073;-73
2022/01/21 13:53:41;;;;;;;6.22;4.00;;;3.20;99.90;;;;;;5251671;28;20020;-73
2022/01/21 13:56:15;;;;;;;6.43;4.85;;;3.10;99.90;;;;;;5251668;28;20043;-73
2022/01/21 13:58:46;;;;;;;10.60;5.07;;;3.10;99.90;;;;;;5251497;28;20025;-72
2022/01/21 14:01:21;;;;;;;6.45;3.58;;;3.30;99.90;;;;;;5250970;28;20063;-73
2022/01/21 14:03:53;;;;;;;9.48;5.22;;;3.00;99.90;;;;;;5250940;28;20068;-73
2022/01/21 14:06:23;;;;;;;4.05;3.55;;;3.00;99.90;;;;;;5251468;28;20408;-73
2022/01/21 14:08:59;;;;;;;2.75;1.60;;;3.10;99.90;;;;;;5250900;28;20056;-72
2022/01/21 14:11:47;;;;;;;5.50;2.22;;;2.80;99.90;;;;;;5251058;28;20013;-73
2022/01/21 14:14:24;;;;;;;5.43;2.20;;;3.00;99.90;;;;;;5250810;28;20028;-73
2022/01/21 14:16:57;;;;;;;4.13;1.88;;;2.80;99.90;;;;;;5232492;28;20036;-73
2022/01/21 14:19:29;;;;;;;3.53;1.98;;;2.70;99.90;;;;;;5250705;28;20024;-74
2022/01/21 14:22:04;;;;;;;4.30;1.92;;;2.70;99.90;;;;;;5251164;28;20028;-73
2022/01/21 14:24:46;;;;;;;5.65;2.70;;;2.60;99.90;;;;;;5251168;28;20036;-73